sensor_id;sensor_type;location;lat;lon;timestamp;P1;durP1;ratioP1;P2;durP2;ratioP2
36833;SDS011;48003;52.084;5.224;2023-03-01T00:02:49;15.2;;;10.9;;
36833;SDS011;48003;52.084;5.224;2023-03-01T00:04:26;14.9;;;10.5;;
36833;SDS011;48003;52.084;5.224;2023-03-01T00:06:03;14.0;;;9.6;;
36833;SDS011;48003;52.084;5.224;2023-03-01T00:07:40;16.0;;;10.4;;
36833;SDS011;48003;52.084;5.224;2023-03-01T00:11:01;15.7;;;10.9;;
36833;SDS011;48003;52.084;5.224;2023-03-01T00:12:39;14.0;;;10.4;;
36833;SDS011;48003;52.084;5.224;2023-03-01T00:14:15;15.8;;;10.1;;
36833;SDS011;48003;52.084;5.224;2023-03-01T00:15:51;15.8;;;10.5;;
36833;SDS011;48003;52.084;5.224;2023-03-01T00:19:04;15.8;;;10.6;;
36833;SDS011;48003;52.084;5.224;2023-03-01T00:20:41;15.8;;;10.5;;
36833;SDS011;48003;52.084;5.224;2023-03-01T00:22:17;15.4;;;10.1;;
36833;SDS011;48003;52.084;5.224;2023-03-01T00:25:30;13.9;;;10.4;;
36833;SDS011;48003;52.084;5.224;2023-03-01T00:27:07;14.9;;;10.4;;
36833;SDS011;48003;52.084;5.224;2023-03-01T00:28:43;15.0;;;10.3;;
36833;SDS011;48003;52.084;5.224;2023-03-01T00:31:56;14.1;;;10.0;;
36833;SDS011;48003;52.084;5.224;2023-03-01T00:33:32;12.7;;;10.1;;
36833;SDS011;48003;52.084;5.224;2023-03-01T00:35:09;14.9;;;10.7;;
36833;SDS011;48003;52.084;5.224;2023-03-01T00:38:22;14.6;;;10.9;;
36833;SDS011;48003;52.084;5.224;2023-03-01T00:39:58;15.8;;;10.3;;
36833;SDS011;48003;52.084;5.224;2023-03-01T00:41:34;15.6;;;11.0;;
36833;SDS011;48003;52.084;5.224;2023-03-01T00:43:10;13.5;;;10.5;;
36833;SDS011;48003;52.084;5.224;2023-03-01T00:46:24;14.9;;;10.6;;
36833;SDS011;48003;52.084;5.224;2023-03-01T00:48:02;13.3;;;10.5;;
36833;SDS011;48003;52.084;5.224;2023-03-01T00:49:38;15.5;;;10.4;;
36833;SDS011;48003;52.084;5.224;2023-03-01T00:52:53;15.1;;;10.7;;
36833;SDS011;48003;52.084;5.224;2023-03-01T00:54:30;15.1;;;11.0;;
36833;SDS011;48003;52.084;5.224;2023-03-01T00:56:08;16.61;;;10.9;;
36833;SDS011;48003;52.084;5.224;2023-03-01T00:57:45;15.9;;;10.7;;
36833;SDS011;48003;52.084;5.224;2023-03-01T01:00:58;15.1;;;10.8;;
36833;SDS011;48003;52.084;5.224;2023-03-01T01:02:34;15.3;;;11.1;;
36833;SDS011;48003;52.084;5.224;2023-03-01T01:04:11;15.8;;;10.8;;
36833;SDS011;48003;52.084;5.224;2023-03-01T01:07:25;16.8;;;11.3;;
36833;SDS011;48003;52.084;5.224;2023-03-01T01:09:02;16.3;;;11.5;;
36833;SDS011;48003;52.084;5.224;2023-03-01T01:10:42;16.3;;;11.5;;
36833;SDS011;48003;52.084;5.224;2023-03-01T01:13:56;18.11;;;12.3;;
36833;SDS011;48003;52.084;5.224;2023-03-01T01:15:33;15.2;;;11.8;;
36833;SDS011;48003;52.084;5.224;2023-03-01T01:17:10;16.2;;;11.6;;
36833;SDS011;48003;52.084;5.224;2023-03-01T01:18:46;19.3;;;12.1;;
36833;SDS011;48003;52.084;5.224;2023-03-01T01:21:58;17.3;;;11.6;;
36833;SDS011;48003;52.084;5.224;2023-03-01T01:23:35;15.9;;;12.4;;
36833;SDS011;48003;52.084;5.224;2023-03-01T01:25:12;16.5;;;12.5;;
36833;SDS011;48003;52.084;5.224;2023-03-01T01:28:25;16.5;;;12.4;;
36833;SDS011;48003;52.084;5.224;2023-03-01T01:30:01;19.0;;;12.6;;
36833;SDS011;48003;52.084;5.224;2023-03-01T01:31:39;17.0;;;12.0;;
36833;SDS011;48003;52.084;5.224;2023-03-01T01:33:17;16.61;;;12.2;;
36833;SDS011;48003;52.084;5.224;2023-03-01T01:36:30;16.11;;;12.5;;
36833;SDS011;48003;52.084;5.224;2023-03-01T01:38:09;17.7;;;12.5;;
36833;SDS011;48003;52.084;5.224;2023-03-01T01:39:45;17.41;;;12.3;;
36833;SDS011;48003;52.084;5.224;2023-03-01T01:42:59;17.3;;;12.8;;
36833;SDS011;48003;52.084;5.224;2023-03-01T01:44:35;17.7;;;13.1;;
36833;SDS011;48003;52.084;5.224;2023-03-01T01:46:15;16.3;;;12.7;;
36833;SDS011;48003;52.084;5.224;2023-03-01T01:47:58;17.91;;;12.5;;
36833;SDS011;48003;52.084;5.224;2023-03-01T01:51:21;17.41;;;12.7;;
36833;SDS011;48003;52.084;5.224;2023-03-01T01:53:01;19.0;;;12.8;;
36833;SDS011;48003;52.084;5.224;2023-03-01T01:54:40;18.5;;;12.9;;
36833;SDS011;48003;52.084;5.224;2023-03-01T01:56:21;18.0;;;13.4;;
36833;SDS011;48003;52.084;5.224;2023-03-01T01:59:43;17.5;;;13.3;;
36833;SDS011;48003;52.084;5.224;2023-03-01T02:01:25;18.41;;;13.3;;
36833;SDS011;48003;52.084;5.224;2023-03-01T02:03:03;17.3;;;13.6;;
36833;SDS011;48003;52.084;5.224;2023-03-01T02:08:05;18.11;;;13.4;;
36833;SDS011;48003;52.084;5.224;2023-03-01T02:09:45;17.8;;;13.6;;
36833;SDS011;48003;52.084;5.224;2023-03-01T02:11:24;18.41;;;13.8;;
36833;SDS011;48003;52.084;5.224;2023-03-01T02:13:03;18.0;;;13.6;;
36833;SDS011;48003;52.084;5.224;2023-03-01T02:16:16;18.2;;;13.3;;
36833;SDS011;48003;52.084;5.224;2023-03-01T02:17:53;17.91;;;14.2;;
36833;SDS011;48003;52.084;5.224;2023-03-01T02:19:35;18.91;;;14.0;;
36833;SDS011;48003;52.084;5.224;2023-03-01T02:21:38;22.1;;;14.3;;
36833;SDS011;48003;52.084;5.224;2023-03-01T02:25:04;19.41;;;13.6;;
36833;SDS011;48003;52.084;5.224;2023-03-01T02:26:51;18.2;;;14.0;;
36833;SDS011;48003;52.084;5.224;2023-03-01T02:28:31;19.61;;;14.9;;
36833;SDS011;48003;52.084;5.224;2023-03-01T02:30:10;19.5;;;15.0;;
36833;SDS011;48003;52.084;5.224;2023-03-01T02:33:24;19.91;;;14.8;;
36833;SDS011;48003;52.084;5.224;2023-03-01T02:35:02;20.11;;;14.6;;
36833;SDS011;48003;52.084;5.224;2023-03-01T02:36:39;21.0;;;14.5;;
36833;SDS011;48003;52.084;5.224;2023-03-01T02:38:18;20.7;;;14.7;;
36833;SDS011;48003;52.084;5.224;2023-03-01T02:41:37;19.91;;;14.7;;
36833;SDS011;48003;52.084;5.224;2023-03-01T02:43:17;18.91;;;14.5;;
36833;SDS011;48003;52.084;5.224;2023-03-01T02:44:57;21.0;;;15.1;;
36833;SDS011;48003;52.084;5.224;2023-03-01T02:46:34;18.8;;;14.7;;
36833;SDS011;48003;52.084;5.224;2023-03-01T02:49:55;19.61;;;15.1;;
36833;SDS011;48003;52.084;5.224;2023-03-01T02:51:35;21.0;;;15.3;;
36833;SDS011;48003;52.084;5.224;2023-03-01T02:53:25;20.9;;;14.5;;
36833;SDS011;48003;52.084;5.224;2023-03-01T02:55:10;19.7;;;14.9;;
36833;SDS011;48003;52.084;5.224;2023-03-01T02:58:27;22.1;;;15.4;;
36833;SDS011;48003;52.084;5.224;2023-03-01T03:00:05;22.2;;;15.2;;
36833;SDS011;48003;52.084;5.224;2023-03-01T03:01:44;20.11;;;15.4;;
36833;SDS011;48003;52.084;5.224;2023-03-01T03:03:20;19.3;;;14.5;;
36833;SDS011;48003;52.084;5.224;2023-03-01T03:06:33;20.6;;;15.4;;
36833;SDS011;48003;52.084;5.224;2023-03-01T03:08:10;20.8;;;15.3;;
36833;SDS011;48003;52.084;5.224;2023-03-01T03:09:46;20.41;;;14.6;;
36833;SDS011;48003;52.084;5.224;2023-03-01T03:12:59;20.5;;;15.5;;
36833;SDS011;48003;52.084;5.224;2023-03-01T03:14:37;20.11;;;15.0;;
36833;SDS011;48003;52.084;5.224;2023-03-01T03:16:13;20.9;;;14.9;;
36833;SDS011;48003;52.084;5.224;2023-03-01T03:19:28;21.6;;;15.4;;
36833;SDS011;48003;52.084;5.224;2023-03-01T03:21:06;21.5;;;14.8;;
36833;SDS011;48003;52.084;5.224;2023-03-01T03:22:43;18.7;;;14.7;;
36833;SDS011;48003;52.084;5.224;2023-03-01T03:24:19;19.8;;;15.0;;
36833;SDS011;48003;52.084;5.224;2023-03-01T03:27:31;21.3;;;15.4;;
36833;SDS011;48003;52.084;5.224;2023-03-01T03:29:08;23.4;;;16.3;;
36833;SDS011;48003;52.084;5.224;2023-03-01T03:30:44;22.7;;;15.9;;
36833;SDS011;48003;52.084;5.224;2023-03-01T03:33:56;22.6;;;16.3;;
36833;SDS011;48003;52.084;5.224;2023-03-01T03:35:33;19.5;;;15.5;;
36833;SDS011;48003;52.084;5.224;2023-03-01T03:37:15;20.0;;;15.3;;
36833;SDS011;48003;52.084;5.224;2023-03-01T03:38:52;20.0;;;15.7;;
36833;SDS011;48003;52.084;5.224;2023-03-01T03:42:08;19.5;;;15.2;;
36833;SDS011;48003;52.084;5.224;2023-03-01T03:43:44;20.9;;;15.7;;
36833;SDS011;48003;52.084;5.224;2023-03-01T03:45:20;21.4;;;15.8;;
36833;SDS011;48003;52.084;5.224;2023-03-01T03:48:33;22.2;;;15.8;;
36833;SDS011;48003;52.084;5.224;2023-03-01T03:50:10;19.5;;;15.4;;
36833;SDS011;48003;52.084;5.224;2023-03-01T03:51:47;24.1;;;16.11;;
36833;SDS011;48003;52.084;5.224;2023-03-01T03:55:03;20.8;;;15.8;;
36833;SDS011;48003;52.084;5.224;2023-03-01T03:56:40;21.8;;;16.4;;
36833;SDS011;48003;52.084;5.224;2023-03-01T03:58:17;23.1;;;17.5;;
36833;SDS011;48003;52.084;5.224;2023-03-01T03:59:54;20.8;;;16.3;;
36833;SDS011;48003;52.084;5.224;2023-03-01T04:03:07;21.5;;;15.5;;
36833;SDS011;48003;52.084;5.224;2023-03-01T04:04:45;21.0;;;15.7;;
36833;SDS011;48003;52.084;5.224;2023-03-01T04:06:21;20.5;;;15.8;;
36833;SDS011;48003;52.084;5.224;2023-03-01T04:09:35;20.9;;;15.5;;
36833;SDS011;48003;52.084;5.224;2023-03-01T04:11:11;22.4;;;16.3;;
36833;SDS011;48003;52.084;5.224;2023-03-01T04:12:49;22.7;;;16.4;;
36833;SDS011;48003;52.084;5.224;2023-03-01T04:14:24;22.2;;;15.1;;
36833;SDS011;48003;52.084;5.224;2023-03-01T04:17:37;21.8;;;16.0;;
36833;SDS011;48003;52.084;5.224;2023-03-01T04:19:13;22.4;;;16.0;;
36833;SDS011;48003;52.084;5.224;2023-03-01T04:20:49;21.0;;;16.0;;
36833;SDS011;48003;52.084;5.224;2023-03-01T04:24:03;20.2;;;16.0;;
36833;SDS011;48003;52.084;5.224;2023-03-01T04:25:40;21.6;;;16.11;;
36833;SDS011;48003;52.084;5.224;2023-03-01T04:27:17;23.0;;;16.11;;
36833;SDS011;48003;52.084;5.224;2023-03-01T04:30:30;21.3;;;15.5;;
36833;SDS011;48003;52.084;5.224;2023-03-01T04:32:06;21.0;;;15.7;;
36833;SDS011;48003;52.084;5.224;2023-03-01T04:33:43;22.8;;;16.0;;
36833;SDS011;48003;52.084;5.224;2023-03-01T04:35:20;21.4;;;16.5;;
36833;SDS011;48003;52.084;5.224;2023-03-01T04:38:32;20.5;;;15.0;;
36833;SDS011;48003;52.084;5.224;2023-03-01T04:40:09;19.8;;;15.0;;
36833;SDS011;48003;52.084;5.224;2023-03-01T04:41:46;25.1;;;15.7;;
36833;SDS011;48003;52.084;5.224;2023-03-01T04:44:59;20.3;;;15.3;;
36833;SDS011;48003;52.084;5.224;2023-03-01T04:46:35;19.91;;;16.2;;
36833;SDS011;48003;52.084;5.224;2023-03-01T04:48:12;19.0;;;15.1;;
36833;SDS011;48003;52.084;5.224;2023-03-01T04:51:25;22.1;;;15.1;;
36833;SDS011;48003;52.084;5.224;2023-03-01T04:53:01;20.5;;;15.9;;
36833;SDS011;48003;52.084;5.224;2023-03-01T04:54:38;19.91;;;15.8;;
36833;SDS011;48003;52.084;5.224;2023-03-01T04:56:14;21.6;;;15.7;;
36833;SDS011;48003;52.084;5.224;2023-03-01T04:59:29;20.41;;;15.2;;
36833;SDS011;48003;52.084;5.224;2023-03-01T05:01:08;21.1;;;15.9;;
36833;SDS011;48003;52.084;5.224;2023-03-01T05:02:47;22.3;;;15.8;;
36833;SDS011;48003;52.084;5.224;2023-03-01T05:06:00;22.3;;;16.3;;
36833;SDS011;48003;52.084;5.224;2023-03-01T05:07:36;21.2;;;15.7;;
36833;SDS011;48003;52.084;5.224;2023-03-01T05:09:12;21.6;;;16.0;;
36833;SDS011;48003;52.084;5.224;2023-03-01T05:12:28;20.0;;;15.5;;
36833;SDS011;48003;52.084;5.224;2023-03-01T05:14:04;23.0;;;16.8;;
36833;SDS011;48003;52.084;5.224;2023-03-01T05:15:42;20.7;;;16.11;;
36833;SDS011;48003;52.084;5.224;2023-03-01T05:17:18;21.0;;;16.3;;
36833;SDS011;48003;52.084;5.224;2023-03-01T05:20:30;19.8;;;14.8;;
36833;SDS011;48003;52.084;5.224;2023-03-01T05:22:06;20.8;;;15.8;;
36833;SDS011;48003;52.084;5.224;2023-03-01T05:23:43;23.9;;;15.8;;
36833;SDS011;48003;52.084;5.224;2023-03-01T05:26:57;21.6;;;16.0;;
36833;SDS011;48003;52.084;5.224;2023-03-01T05:28:34;20.3;;;15.0;;
36833;SDS011;48003;52.084;5.224;2023-03-01T05:30:11;22.7;;;16.11;;
36833;SDS011;48003;52.084;5.224;2023-03-01T05:31:48;22.2;;;16.61;;
36833;SDS011;48003;52.084;5.224;2023-03-01T05:35:03;24.7;;;16.7;;
36833;SDS011;48003;52.084;5.224;2023-03-01T05:36:40;22.9;;;15.8;;
36833;SDS011;48003;52.084;5.224;2023-03-01T05:38:16;22.9;;;16.2;;
36833;SDS011;48003;52.084;5.224;2023-03-01T05:41:28;21.6;;;16.3;;
36833;SDS011;48003;52.084;5.224;2023-03-01T05:43:04;22.8;;;16.2;;
36833;SDS011;48003;52.084;5.224;2023-03-01T05:44:41;22.2;;;16.3;;
36833;SDS011;48003;52.084;5.224;2023-03-01T05:47:54;22.0;;;16.3;;
36833;SDS011;48003;52.084;5.224;2023-03-01T05:49:31;23.6;;;17.11;;
36833;SDS011;48003;52.084;5.224;2023-03-01T05:51:07;24.1;;;16.8;;
36833;SDS011;48003;52.084;5.224;2023-03-01T05:52:43;22.3;;;16.5;;
36833;SDS011;48003;52.084;5.224;2023-03-01T05:55:59;25.2;;;18.11;;
36833;SDS011;48003;52.084;5.224;2023-03-01T05:57:35;26.3;;;18.5;;
36833;SDS011;48003;52.084;5.224;2023-03-01T05:59:11;28.6;;;19.61;;
36833;SDS011;48003;52.084;5.224;2023-03-01T06:02:24;29.5;;;19.7;;
36833;SDS011;48003;52.084;5.224;2023-03-01T06:04:00;24.7;;;18.0;;
36833;SDS011;48003;52.084;5.224;2023-03-01T06:05:37;24.3;;;17.41;;
36833;SDS011;48003;52.084;5.224;2023-03-01T06:08:51;24.6;;;17.8;;
36833;SDS011;48003;52.084;5.224;2023-03-01T06:10:28;24.6;;;17.8;;
36833;SDS011;48003;52.084;5.224;2023-03-01T06:12:05;22.0;;;17.41;;
36833;SDS011;48003;52.084;5.224;2023-03-01T06:13:42;23.6;;;16.9;;
36833;SDS011;48003;52.084;5.224;2023-03-01T06:16:57;22.5;;;17.11;;
36833;SDS011;48003;52.084;5.224;2023-03-01T06:18:34;22.1;;;17.2;;
36833;SDS011;48003;52.084;5.224;2023-03-01T06:20:12;23.0;;;17.5;;
36833;SDS011;48003;52.084;5.224;2023-03-01T06:23:26;24.9;;;17.41;;
36833;SDS011;48003;52.084;5.224;2023-03-01T06:25:02;23.3;;;17.2;;
36833;SDS011;48003;52.084;5.224;2023-03-01T06:26:40;23.1;;;17.5;;
36833;SDS011;48003;52.084;5.224;2023-03-01T06:28:16;25.5;;;17.0;;
36833;SDS011;48003;52.084;5.224;2023-03-01T06:31:29;24.1;;;17.41;;
36833;SDS011;48003;52.084;5.224;2023-03-01T06:33:05;28.0;;;18.8;;
36833;SDS011;48003;52.084;5.224;2023-03-01T06:34:41;29.5;;;19.91;;
36833;SDS011;48003;52.084;5.224;2023-03-01T06:37:53;28.3;;;19.3;;
36833;SDS011;48003;52.084;5.224;2023-03-01T06:39:30;23.9;;;18.5;;
36833;SDS011;48003;52.084;5.224;2023-03-01T06:41:06;24.3;;;18.41;;
36833;SDS011;48003;52.084;5.224;2023-03-01T06:46:03;27.8;;;19.2;;
36833;SDS011;48003;52.084;5.224;2023-03-01T06:47:40;25.5;;;18.5;;
36833;SDS011;48003;52.084;5.224;2023-03-01T06:49:16;25.9;;;18.5;;
36833;SDS011;48003;52.084;5.224;2023-03-01T06:52:30;27.4;;;18.3;;
36833;SDS011;48003;52.084;5.224;2023-03-01T06:54:07;23.7;;;17.8;;
36833;SDS011;48003;52.084;5.224;2023-03-01T06:55:43;27.3;;;19.2;;
36833;SDS011;48003;52.084;5.224;2023-03-01T06:58:55;26.0;;;19.41;;
36833;SDS011;48003;52.084;5.224;2023-03-01T07:00:31;29.2;;;18.91;;
36833;SDS011;48003;52.084;5.224;2023-03-01T07:02:09;26.7;;;18.3;;
36833;SDS011;48003;52.084;5.224;2023-03-01T07:05:23;27.7;;;18.5;;
36833;SDS011;48003;52.084;5.224;2023-03-01T07:06:59;24.7;;;18.11;;
36833;SDS011;48003;52.084;5.224;2023-03-01T07:10:11;26.3;;;19.0;;
36833;SDS011;48003;52.084;5.224;2023-03-01T07:13:25;26.5;;;19.11;;
36833;SDS011;48003;52.084;5.224;2023-03-01T07:15:02;26.3;;;19.2;;
36833;SDS011;48003;52.084;5.224;2023-03-01T07:16:40;26.1;;;18.41;;
36833;SDS011;48003;52.084;5.224;2023-03-01T07:19:52;25.6;;;18.41;;
36833;SDS011;48003;52.084;5.224;2023-03-01T07:21:29;25.0;;;18.41;;
36833;SDS011;48003;52.084;5.224;2023-03-01T07:23:06;26.1;;;18.91;;
36833;SDS011;48003;52.084;5.224;2023-03-01T07:26:19;27.8;;;18.8;;
36833;SDS011;48003;52.084;5.224;2023-03-01T07:27:55;28.3;;;18.7;;
36833;SDS011;48003;52.084;5.224;2023-03-01T07:29:31;25.0;;;18.41;;
36833;SDS011;48003;52.084;5.224;2023-03-01T07:31:07;26.9;;;18.7;;
36833;SDS011;48003;52.084;5.224;2023-03-01T07:34:20;25.4;;;19.0;;
36833;SDS011;48003;52.084;5.224;2023-03-01T07:35:56;27.6;;;19.11;;
36833;SDS011;48003;52.084;5.224;2023-03-01T07:37:33;25.2;;;18.7;;
36833;SDS011;48003;52.084;5.224;2023-03-01T07:40:46;26.0;;;19.11;;
36833;SDS011;48003;52.084;5.224;2023-03-01T07:42:23;27.2;;;19.7;;
36833;SDS011;48003;52.084;5.224;2023-03-01T07:43:59;27.1;;;19.3;;
36833;SDS011;48003;52.084;5.224;2023-03-01T07:47:11;27.0;;;19.41;;
36833;SDS011;48003;52.084;5.224;2023-03-01T07:48:47;25.4;;;18.2;;
36833;SDS011;48003;52.084;5.224;2023-03-01T07:50:23;26.8;;;19.0;;
36833;SDS011;48003;52.084;5.224;2023-03-01T07:51:59;25.4;;;18.41;;
36833;SDS011;48003;52.084;5.224;2023-03-01T07:55:13;26.6;;;18.8;;
36833;SDS011;48003;52.084;5.224;2023-03-01T07:56:50;25.6;;;18.41;;
36833;SDS011;48003;52.084;5.224;2023-03-01T07:58:26;25.6;;;18.2;;
36833;SDS011;48003;52.084;5.224;2023-03-01T08:01:40;25.4;;;19.0;;
36833;SDS011;48003;52.084;5.224;2023-03-01T08:03:17;25.9;;;18.7;;
36833;SDS011;48003;52.084;5.224;2023-03-01T08:04:53;26.0;;;18.7;;
36833;SDS011;48003;52.084;5.224;2023-03-01T08:08:05;26.8;;;19.3;;
36833;SDS011;48003;52.084;5.224;2023-03-01T08:09:41;27.1;;;18.2;;
36833;SDS011;48003;52.084;5.224;2023-03-01T08:11:17;24.1;;;17.91;;
36833;SDS011;48003;52.084;5.224;2023-03-01T08:12:54;26.9;;;18.3;;
36833;SDS011;48003;52.084;5.224;2023-03-01T08:16:07;26.8;;;18.41;;
36833;SDS011;48003;52.084;5.224;2023-03-01T08:17:45;28.9;;;17.5;;
36833;SDS011;48003;52.084;5.224;2023-03-01T08:19:25;26.8;;;18.2;;
36833;SDS011;48003;52.084;5.224;2023-03-01T08:22:40;27.3;;;17.91;;
36833;SDS011;48003;52.084;5.224;2023-03-01T08:24:16;25.8;;;17.2;;
36833;SDS011;48003;52.084;5.224;2023-03-01T08:25:52;24.6;;;16.8;;
36833;SDS011;48003;52.084;5.224;2023-03-01T08:29:04;22.0;;;16.4;;
36833;SDS011;48003;52.084;5.224;2023-03-01T08:30:40;26.1;;;16.8;;
36833;SDS011;48003;52.084;5.224;2023-03-01T08:32:17;21.7;;;15.3;;
36833;SDS011;48003;52.084;5.224;2023-03-01T08:33:53;21.7;;;15.5;;
36833;SDS011;48003;52.084;5.224;2023-03-01T08:37:09;21.0;;;14.7;;
36833;SDS011;48003;52.084;5.224;2023-03-01T08:38:45;21.0;;;14.9;;
36833;SDS011;48003;52.084;5.224;2023-03-01T08:40:22;20.6;;;14.4;;
36833;SDS011;48003;52.084;5.224;2023-03-01T08:45:11;19.91;;;13.8;;
36833;SDS011;48003;52.084;5.224;2023-03-01T08:46:47;19.7;;;13.4;;
36833;SDS011;48003;52.084;5.224;2023-03-01T08:50:00;18.2;;;13.0;;
36833;SDS011;48003;52.084;5.224;2023-03-01T08:51:38;18.2;;;13.2;;
36833;SDS011;48003;52.084;5.224;2023-03-01T08:53:15;18.2;;;13.0;;
36833;SDS011;48003;52.084;5.224;2023-03-01T08:54:51;17.41;;;12.7;;
36833;SDS011;48003;52.084;5.224;2023-03-01T08:58:03;18.2;;;11.3;;
36833;SDS011;48003;52.084;5.224;2023-03-01T08:59:39;16.2;;;10.9;;
36833;SDS011;48003;52.084;5.224;2023-03-01T09:01:16;14.3;;;9.9;;
36833;SDS011;48003;52.084;5.224;2023-03-01T09:04:31;13.7;;;9.6;;
36833;SDS011;48003;52.084;5.224;2023-03-01T09:06:07;13.0;;;9.81;;
36833;SDS011;48003;52.084;5.224;2023-03-01T09:07:44;13.1;;;9.71;;
36833;SDS011;48003;52.084;5.224;2023-03-01T09:09:20;14.5;;;9.6;;
36833;SDS011;48003;52.084;5.224;2023-03-01T09:12:32;14.5;;;9.6;;
36833;SDS011;48003;52.084;5.224;2023-03-01T09:14:09;14.6;;;9.5;;
36833;SDS011;48003;52.084;5.224;2023-03-01T09:15:45;12.7;;;9.31;;
36833;SDS011;48003;52.084;5.224;2023-03-01T09:18:57;17.3;;;9.71;;
36833;SDS011;48003;52.084;5.224;2023-03-01T09:20:33;12.8;;;8.4;;
36833;SDS011;48003;52.084;5.224;2023-03-01T09:22:09;14.0;;;7.8;;
36833;SDS011;48003;52.084;5.224;2023-03-01T09:25:24;11.0;;;7.3;;
36833;SDS011;48003;52.084;5.224;2023-03-01T09:27:00;9.71;;;6.4;;
36833;SDS011;48003;52.084;5.224;2023-03-01T09:28:36;10.8;;;5.9;;
36833;SDS011;48003;52.084;5.224;2023-03-01T09:31:49;9.6;;;6.5;;
36833;SDS011;48003;52.084;5.224;2023-03-01T09:33:26;9.21;;;6.5;;
36833;SDS011;48003;52.084;5.224;2023-03-01T09:35:03;11.0;;;6.0;;
36833;SDS011;48003;52.084;5.224;2023-03-01T09:36:40;8.0;;;5.11;;
36833;SDS011;48003;52.084;5.224;2023-03-01T09:39:52;9.21;;;5.4;;
36833;SDS011;48003;52.084;5.224;2023-03-01T09:41:45;7.4;;;4.61;;
36833;SDS011;48003;52.084;5.224;2023-03-01T09:43:34;7.6;;;4.8;;
36833;SDS011;48003;52.084;5.224;2023-03-01T09:45:26;6.8;;;4.2;;
36833;SDS011;48003;52.084;5.224;2023-03-01T09:47:09;6.8;;;4.5;;
36833;SDS011;48003;52.084;5.224;2023-03-01T09:50:38;7.5;;;4.41;;
36833;SDS011;48003;52.084;5.224;2023-03-01T09:52:20;7.4;;;4.0;;
36833;SDS011;48003;52.084;5.224;2023-03-01T09:54:05;6.4;;;3.7;;
36833;SDS011;48003;52.084;5.224;2023-03-01T09:55:43;6.2;;;3.7;;
36833;SDS011;48003;52.084;5.224;2023-03-01T09:59:09;6.5;;;3.7;;
36833;SDS011;48003;52.084;5.224;2023-03-01T10:00:59;5.4;;;3.7;;
36833;SDS011;48003;52.084;5.224;2023-03-01T10:02:47;4.1;;;3.0;;
36833;SDS011;48003;52.084;5.224;2023-03-01T10:04:28;5.8;;;3.6;;
36833;SDS011;48003;52.084;5.224;2023-03-01T10:06:19;5.7;;;3.6;;
36833;SDS011;48003;52.084;5.224;2023-03-01T10:08:01;7.9;;;3.8;;
36833;SDS011;48003;52.084;5.224;2023-03-01T10:10:01;6.0;;;3.7;;
36833;SDS011;48003;52.084;5.224;2023-03-01T10:13:22;6.8;;;3.6;;
36833;SDS011;48003;52.084;5.224;2023-03-01T10:15:04;5.6;;;3.5;;
36833;SDS011;48003;52.084;5.224;2023-03-01T10:16:48;6.7;;;4.0;;
36833;SDS011;48003;52.084;5.224;2023-03-01T10:18:29;6.7;;;4.0;;
36833;SDS011;48003;52.084;5.224;2023-03-01T10:22:00;8.31;;;3.9;;
36833;SDS011;48003;52.084;5.224;2023-03-01T10:23:45;5.0;;;3.3;;
36833;SDS011;48003;52.084;5.224;2023-03-01T10:25:32;6.2;;;3.5;;
36833;SDS011;48003;52.084;5.224;2023-03-01T10:27:22;5.9;;;3.5;;
36833;SDS011;48003;52.084;5.224;2023-03-01T10:29:03;7.5;;;3.7;;
36833;SDS011;48003;52.084;5.224;2023-03-01T10:32:17;6.5;;;3.7;;
36833;SDS011;48003;52.084;5.224;2023-03-01T10:33:54;7.7;;;3.9;;
36833;SDS011;48003;52.084;5.224;2023-03-01T10:35:32;6.0;;;4.0;;
36833;SDS011;48003;52.084;5.224;2023-03-01T10:38:49;7.2;;;4.41;;
36833;SDS011;48003;52.084;5.224;2023-03-01T10:40:27;7.1;;;4.2;;
36833;SDS011;48003;52.084;5.224;2023-03-01T10:42:04;6.4;;;4.41;;
36833;SDS011;48003;52.084;5.224;2023-03-01T10:43:54;7.2;;;3.8;;
36833;SDS011;48003;52.084;5.224;2023-03-01T10:47:14;6.9;;;3.7;;
36833;SDS011;48003;52.084;5.224;2023-03-01T10:49:05;7.5;;;3.5;;
36833;SDS011;48003;52.084;5.224;2023-03-01T10:51:05;6.5;;;3.1;;
36833;SDS011;48003;52.084;5.224;2023-03-01T10:52:42;4.41;;;2.8;;
36833;SDS011;48003;52.084;5.224;2023-03-01T10:54:34;4.61;;;3.0;;
36833;SDS011;48003;52.084;5.224;2023-03-01T10:56:10;6.3;;;3.2;;
36833;SDS011;48003;52.084;5.224;2023-03-01T10:59:27;4.91;;;3.4;;
36833;SDS011;48003;52.084;5.224;2023-03-01T11:01:24;6.3;;;3.5;;
36833;SDS011;48003;52.084;5.224;2023-03-01T11:03:08;5.7;;;3.0;;
36833;SDS011;48003;52.084;5.224;2023-03-01T11:05:13;4.5;;;3.1;;
36833;SDS011;48003;52.084;5.224;2023-03-01T11:06:58;5.4;;;3.1;;
36833;SDS011;48003;52.084;5.224;2023-03-01T11:08:38;8.81;;;3.7;;
36833;SDS011;48003;52.084;5.224;2023-03-01T11:11:57;5.8;;;3.4;;
36833;SDS011;48003;52.084;5.224;2023-03-01T11:13:36;5.7;;;3.3;;
36833;SDS011;48003;52.084;5.224;2023-03-01T11:15:24;6.9;;;3.5;;
36833;SDS011;48003;52.084;5.224;2023-03-01T11:17:04;4.91;;;3.4;;
36833;SDS011;48003;52.084;5.224;2023-03-01T11:20:33;5.6;;;3.8;;
36833;SDS011;48003;52.084;5.224;2023-03-01T11:22:12;5.8;;;3.5;;
36833;SDS011;48003;52.084;5.224;2023-03-01T11:23:53;4.91;;;3.4;;
36833;SDS011;48003;52.084;5.224;2023-03-01T11:25:30;5.2;;;3.5;;
36833;SDS011;48003;52.084;5.224;2023-03-01T11:29:00;6.1;;;3.8;;
36833;SDS011;48003;52.084;5.224;2023-03-01T11:30:44;7.3;;;3.5;;
36833;SDS011;48003;52.084;5.224;2023-03-01T11:32:28;5.7;;;3.5;;
36833;SDS011;48003;52.084;5.224;2023-03-01T11:34:24;5.9;;;3.4;;
36833;SDS011;48003;52.084;5.224;2023-03-01T11:36:26;6.7;;;3.6;;
36833;SDS011;48003;52.084;5.224;2023-03-01T11:38:12;5.6;;;3.4;;
36833;SDS011;48003;52.084;5.224;2023-03-01T11:41:42;5.0;;;3.3;;
36833;SDS011;48003;52.084;5.224;2023-03-01T11:43:26;5.5;;;3.3;;
36833;SDS011;48003;52.084;5.224;2023-03-01T11:45:10;7.1;;;3.1;;
36833;SDS011;48003;52.084;5.224;2023-03-01T11:46:51;5.11;;;3.5;;
36833;SDS011;48003;52.084;5.224;2023-03-01T11:50:34;4.8;;;3.1;;
36833;SDS011;48003;52.084;5.224;2023-03-01T11:52:18;5.0;;;3.1;;
36833;SDS011;48003;52.084;5.224;2023-03-01T11:54:09;4.0;;;2.5;;
36833;SDS011;48003;52.084;5.224;2023-03-01T11:56:04;6.2;;;2.8;;
36833;SDS011;48003;52.084;5.224;2023-03-01T11:58:00;7.0;;;2.7;;
36833;SDS011;48003;52.084;5.224;2023-03-01T12:00:06;4.0;;;2.7;;
36833;SDS011;48003;52.084;5.224;2023-03-01T12:02:07;5.0;;;2.4;;
36833;SDS011;48003;52.084;5.224;2023-03-01T12:05:06;3.7;;;2.4;;
36833;SDS011;48003;52.084;5.224;2023-03-01T12:07:56;4.3;;;2.5;;
36833;SDS011;48003;52.084;5.224;2023-03-01T12:09:48;4.2;;;2.7;;
36833;SDS011;48003;52.084;5.224;2023-03-01T12:11:46;3.2;;;2.31;;
36833;SDS011;48003;52.084;5.224;2023-03-01T12:13:43;4.0;;;2.6;;
36833;SDS011;48003;52.084;5.224;2023-03-01T12:15:50;4.3;;;3.0;;
36833;SDS011;48003;52.084;5.224;2023-03-01T12:17:54;4.3;;;3.0;;
36833;SDS011;48003;52.084;5.224;2023-03-01T12:19:54;5.2;;;2.6;;
36833;SDS011;48003;52.084;5.224;2023-03-01T12:24:47;4.7;;;2.6;;
36833;SDS011;48003;52.084;5.224;2023-03-01T12:26:57;4.8;;;2.6;;
36833;SDS011;48003;52.084;5.224;2023-03-01T12:28:55;4.0;;;2.6;;
36833;SDS011;48003;52.084;5.224;2023-03-01T12:31:05;4.41;;;2.8;;
36833;SDS011;48003;52.084;5.224;2023-03-01T12:33:50;4.1;;;2.8;;
36833;SDS011;48003;52.084;5.224;2023-03-01T12:35:36;4.7;;;2.8;;
36833;SDS011;48003;52.084;5.224;2023-03-01T12:37:29;4.8;;;3.5;;
36833;SDS011;48003;52.084;5.224;2023-03-01T12:39:24;5.9;;;3.5;;
36833;SDS011;48003;52.084;5.224;2023-03-01T12:41:21;5.4;;;3.6;;
36833;SDS011;48003;52.084;5.224;2023-03-01T12:43:50;5.6;;;3.3;;
36833;SDS011;48003;52.084;5.224;2023-03-01T12:45:42;4.2;;;3.1;;
36833;SDS011;48003;52.084;5.224;2023-03-01T12:47:39;6.9;;;3.4;;
36833;SDS011;48003;52.084;5.224;2023-03-01T12:49:32;4.1;;;3.1;;
36833;SDS011;48003;52.084;5.224;2023-03-01T12:51:16;5.3;;;3.1;;
36833;SDS011;48003;52.084;5.224;2023-03-01T12:54:34;6.0;;;3.2;;